<?xml version="1.0" encoding="UTF-8" standalone="no" ?>
<gpx xmlns="http://www.topografix.com/GPX/1/1" xmlns:xsi="http://www.w3.org/2001/XMLSchema-instance" xsi:schemaLocation="http://www.topografix.com/GPX/1/1 http://www.topografix.com/GPX/1/1/gpx.xsd" version="1.1" creator="VisuGPX - https://www.visugpx.com">
  <metadata>
    <name>Sortie 29/04/2012 Vesoul</name>
    <desc><![CDATA[petite randonée en VTT]]></desc>
  </metadata>
  <trk>
    <name><![CDATA[(null)]]></name>
    <desc><![CDATA[(null)]]></desc>
    <trkseg>
      <trkpt lat="47.63129" lon="6.10345">
        <ele>213.657898</ele>
        <time>2012-04-29T14:50:49Z</time>
      </trkpt>
      <trkpt lat="47.63129" lon="6.10345">
        <ele>213.657898</ele>
        <time>2012-04-29T14:50:49Z</time>
      </trkpt>
      <trkpt lat="47.63083" lon="6.10384">
        <ele>225.690018</ele>
        <time>2012-04-29T14:50:50Z</time>
      </trkpt>
      <trkpt lat="47.63077" lon="6.10387">
        <ele>226.474365</ele>
        <time>2012-04-29T14:50:51Z</time>
      </trkpt>
      <trkpt lat="47.63078" lon="6.10368">
        <ele>229.570618</ele>
        <time>2012-04-29T14:50:55Z</time>
      </trkpt>
      <trkpt lat="47.6301" lon="6.10456">
        <ele>222.15451</ele>
        <time>2012-04-29T14:51:20Z</time>
      </trkpt>
      <trkpt lat="47.6293" lon="6.10391">
        <ele>231.069427</ele>
        <time>2012-04-29T14:51:52Z</time>
      </trkpt>
      <trkpt lat="47.62897" lon="6.10265">
        <ele>243.201782</ele>
        <time>2012-04-29T14:52:48Z</time>
      </trkpt>
      <trkpt lat="47.62838" lon="6.10164">
        <ele>256.258453</ele>
        <time>2012-04-29T14:53:51Z</time>
      </trkpt>
      <trkpt lat="47.62791" lon="6.10048">
        <ele>270.773621</ele>
        <time>2012-04-29T14:55:08Z</time>
      </trkpt>
      <trkpt lat="47.62882" lon="6.10021">
        <ele>264.608734</ele>
        <time>2012-04-29T14:55:29Z</time>
      </trkpt>
      <trkpt lat="47.62886" lon="6.09887">
        <ele>267.362671</ele>
        <time>2012-04-29T14:56:03Z</time>
      </trkpt>
      <trkpt lat="47.62888" lon="6.09752">
        <ele>277.276978</ele>
        <time>2012-04-29T14:56:41Z</time>
      </trkpt>
      <trkpt lat="47.62927" lon="6.09631">
        <ele>278.067017</ele>
        <time>2012-04-29T14:57:06Z</time>
      </trkpt>
      <trkpt lat="47.62897" lon="6.09504">
        <ele>294.203888</ele>
        <time>2012-04-29T14:57:50Z</time>
      </trkpt>
      <trkpt lat="47.62913" lon="6.09371">
        <ele>294.596527</ele>
        <time>2012-04-29T14:58:21Z</time>
      </trkpt>
      <trkpt lat="47.62893" lon="6.09238">
        <ele>300.362976</ele>
        <time>2012-04-29T14:58:49Z</time>
      </trkpt>
      <trkpt lat="47.62866" lon="6.09109">
        <ele>312.938599</ele>
        <time>2012-04-29T14:59:16Z</time>
      </trkpt>
      <trkpt lat="47.62834" lon="6.08979">
        <ele>314.433777</ele>
        <time>2012-04-29T14:59:43Z</time>
      </trkpt>
      <trkpt lat="47.62811" lon="6.08848">
        <ele>312.856323</ele>
        <time>2012-04-29T15:00:04Z</time>
      </trkpt>
      <trkpt lat="47.62787" lon="6.08715">
        <ele>315.117371</ele>
        <time>2012-04-29T15:00:24Z</time>
      </trkpt>
      <trkpt lat="47.62771" lon="6.0858">
        <ele>314.849335</ele>
        <time>2012-04-29T15:00:48Z</time>
      </trkpt>
      <trkpt lat="47.62726" lon="6.08463">
        <ele>319.694061</ele>
        <time>2012-04-29T15:01:10Z</time>
      </trkpt>
      <trkpt lat="47.6268" lon="6.08343">
        <ele>313.397552</ele>
        <time>2012-04-29T15:01:30Z</time>
      </trkpt>
      <trkpt lat="47.62617" lon="6.08244">
        <ele>317.977539</ele>
        <time>2012-04-29T15:01:48Z</time>
      </trkpt>
      <trkpt lat="47.62545" lon="6.08161">
        <ele>320.162659</ele>
        <time>2012-04-29T15:02:11Z</time>
      </trkpt>
      <trkpt lat="47.62457" lon="6.08205">
        <ele>314.838867</ele>
        <time>2012-04-29T15:02:28Z</time>
      </trkpt>
      <trkpt lat="47.62369" lon="6.08266">
        <ele>302.292938</ele>
        <time>2012-04-29T15:02:39Z</time>
      </trkpt>
      <trkpt lat="47.62277" lon="6.08308">
        <ele>287.403656</ele>
        <time>2012-04-29T15:02:54Z</time>
      </trkpt>
      <trkpt lat="47.62198" lon="6.08374">
        <ele>283.969086</ele>
        <time>2012-04-29T15:03:07Z</time>
      </trkpt>
      <trkpt lat="47.62259" lon="6.08474">
        <ele>302.210083</ele>
        <time>2012-04-29T15:04:47Z</time>
      </trkpt>
      <trkpt lat="47.62207" lon="6.08587">
        <ele>300.336334</ele>
        <time>2012-04-29T15:05:21Z</time>
      </trkpt>
      <trkpt lat="47.62142" lon="6.08686">
        <ele>299.901703</ele>
        <time>2012-04-29T15:05:42Z</time>
      </trkpt>
      <trkpt lat="47.62089" lon="6.08799">
        <ele>305.424927</ele>
        <time>2012-04-29T15:06:01Z</time>
      </trkpt>
      <trkpt lat="47.62043" lon="6.08921">
        <ele>308.409912</ele>
        <time>2012-04-29T15:06:20Z</time>
      </trkpt>
      <trkpt lat="47.6199" lon="6.09036">
        <ele>308.374878</ele>
        <time>2012-04-29T15:06:38Z</time>
      </trkpt>
      <trkpt lat="47.61926" lon="6.09134">
        <ele>303.611023</ele>
        <time>2012-04-29T15:07:17Z</time>
      </trkpt>
      <trkpt lat="47.61895" lon="6.0926">
        <ele>328.797821</ele>
        <time>2012-04-29T15:08:16Z</time>
      </trkpt>
      <trkpt lat="47.61859" lon="6.09382">
        <ele>344.470337</ele>
        <time>2012-04-29T15:09:21Z</time>
      </trkpt>
      <trkpt lat="47.61776" lon="6.09437">
        <ele>359.055542</ele>
        <time>2012-04-29T15:10:24Z</time>
      </trkpt>
      <trkpt lat="47.6177" lon="6.09571">
        <ele>362.37735</ele>
        <time>2012-04-29T15:11:13Z</time>
      </trkpt>
      <trkpt lat="47.61735" lon="6.09696">
        <ele>364.256104</ele>
        <time>2012-04-29T15:11:57Z</time>
      </trkpt>
      <trkpt lat="47.61662" lon="6.09775">
        <ele>369.955994</ele>
        <time>2012-04-29T15:12:28Z</time>
      </trkpt>
      <trkpt lat="47.61603" lon="6.09875">
        <ele>380.979004</ele>
        <time>2012-04-29T15:13:10Z</time>
      </trkpt>
      <trkpt lat="47.61618" lon="6.10007">
        <ele>384.169891</ele>
        <time>2012-04-29T15:13:44Z</time>
      </trkpt>
      <trkpt lat="47.61605" lon="6.10143">
        <ele>388.688049</ele>
        <time>2012-04-29T15:14:07Z</time>
      </trkpt>
      <trkpt lat="47.61607" lon="6.10278">
        <ele>381.625305</ele>
        <time>2012-04-29T15:14:24Z</time>
      </trkpt>
      <trkpt lat="47.6158" lon="6.10406">
        <ele>373.235657</ele>
        <time>2012-04-29T15:14:37Z</time>
      </trkpt>
      <trkpt lat="47.6157" lon="6.10546">
        <ele>380.835419</ele>
        <time>2012-04-29T15:14:55Z</time>
      </trkpt>
      <trkpt lat="47.61505" lon="6.10639">
        <ele>380.070343</ele>
        <time>2012-04-29T15:15:11Z</time>
      </trkpt>
      <trkpt lat="47.61431" lon="6.10729">
        <ele>382.314758</ele>
        <time>2012-04-29T15:15:24Z</time>
      </trkpt>
      <trkpt lat="47.6135" lon="6.10794">
        <ele>384.04361</ele>
        <time>2012-04-29T15:15:39Z</time>
      </trkpt>
      <trkpt lat="47.61261" lon="6.10827">
        <ele>379.249146</ele>
        <time>2012-04-29T15:15:54Z</time>
      </trkpt>
      <trkpt lat="47.61174" lon="6.10863">
        <ele>383.120239</ele>
        <time>2012-04-29T15:16:21Z</time>
      </trkpt>
      <trkpt lat="47.61084" lon="6.10873">
        <ele>386.889221</ele>
        <time>2012-04-29T15:16:40Z</time>
      </trkpt>
      <trkpt lat="47.60995" lon="6.10898">
        <ele>376.541351</ele>
        <time>2012-04-29T15:16:51Z</time>
      </trkpt>
      <trkpt lat="47.60907" lon="6.10963">
        <ele>371.317322</ele>
        <time>2012-04-29T15:17:00Z</time>
      </trkpt>
      <trkpt lat="47.60842" lon="6.11075">
        <ele>365.42984</ele>
        <time>2012-04-29T15:17:08Z</time>
      </trkpt>
      <trkpt lat="47.60751" lon="6.11094">
        <ele>355.893921</ele>
        <time>2012-04-29T15:17:16Z</time>
      </trkpt>
      <trkpt lat="47.60655" lon="6.11129">
        <ele>345.907166</ele>
        <time>2012-04-29T15:17:25Z</time>
      </trkpt>
      <trkpt lat="47.60562" lon="6.11139">
        <ele>336.084015</ele>
        <time>2012-04-29T15:17:37Z</time>
      </trkpt>
      <trkpt lat="47.60484" lon="6.11061">
        <ele>333.977509</ele>
        <time>2012-04-29T15:17:52Z</time>
      </trkpt>
      <trkpt lat="47.6041" lon="6.10974">
        <ele>328.439056</ele>
        <time>2012-04-29T15:18:06Z</time>
      </trkpt>
      <trkpt lat="47.60324" lon="6.10919">
        <ele>325.68222</ele>
        <time>2012-04-29T15:18:19Z</time>
      </trkpt>
      <trkpt lat="47.60235" lon="6.10881">
        <ele>320.495148</ele>
        <time>2012-04-29T15:18:32Z</time>
      </trkpt>
      <trkpt lat="47.60153" lon="6.10822">
        <ele>320.388611</ele>
        <time>2012-04-29T15:18:45Z</time>
      </trkpt>
      <trkpt lat="47.60125" lon="6.10951">
        <ele>325.874451</ele>
        <time>2012-04-29T15:19:07Z</time>
      </trkpt>
      <trkpt lat="47.60147" lon="6.11082">
        <ele>327.770203</ele>
        <time>2012-04-29T15:19:26Z</time>
      </trkpt>
      <trkpt lat="47.60149" lon="6.11216">
        <ele>329.662445</ele>
        <time>2012-04-29T15:19:46Z</time>
      </trkpt>
      <trkpt lat="47.60122" lon="6.11346">
        <ele>333.558838</ele>
        <time>2012-04-29T15:20:06Z</time>
      </trkpt>
      <trkpt lat="47.60031" lon="6.1133">
        <ele>338.773529</ele>
        <time>2012-04-29T15:20:33Z</time>
      </trkpt>
      <trkpt lat="47.59947" lon="6.1127">
        <ele>330.215637</ele>
        <time>2012-04-29T15:20:56Z</time>
      </trkpt>
      <trkpt lat="47.59859" lon="6.11224">
        <ele>328.925446</ele>
        <time>2012-04-29T15:21:20Z</time>
      </trkpt>
      <trkpt lat="47.59771" lon="6.11193">
        <ele>325.806122</ele>
        <time>2012-04-29T15:21:39Z</time>
      </trkpt>
      <trkpt lat="47.5973" lon="6.11312">
        <ele>334.419098</ele>
        <time>2012-04-29T15:22:25Z</time>
      </trkpt>
      <trkpt lat="47.59801" lon="6.11393">
        <ele>346.629639</ele>
        <time>2012-04-29T15:22:50Z</time>
      </trkpt>
      <trkpt lat="47.59887" lon="6.11451">
        <ele>352.146606</ele>
        <time>2012-04-29T15:23:13Z</time>
      </trkpt>
      <trkpt lat="47.59959" lon="6.11534">
        <ele>359.475464</ele>
        <time>2012-04-29T15:23:34Z</time>
      </trkpt>
      <trkpt lat="47.60036" lon="6.11603">
        <ele>348.090759</ele>
        <time>2012-04-29T15:23:55Z</time>
      </trkpt>
      <trkpt lat="47.6012" lon="6.11666">
        <ele>355.056854</ele>
        <time>2012-04-29T15:24:18Z</time>
      </trkpt>
      <trkpt lat="47.60131" lon="6.11799">
        <ele>373.434601</ele>
        <time>2012-04-29T15:24:59Z</time>
      </trkpt>
      <trkpt lat="47.60174" lon="6.11919">
        <ele>371.592499</ele>
        <time>2012-04-29T15:25:35Z</time>
      </trkpt>
      <trkpt lat="47.60219" lon="6.12038">
        <ele>378.848083</ele>
        <time>2012-04-29T15:26:07Z</time>
      </trkpt>
      <trkpt lat="47.60276" lon="6.12142">
        <ele>379.70517</ele>
        <time>2012-04-29T15:26:33Z</time>
      </trkpt>
      <trkpt lat="47.60328" lon="6.12254">
        <ele>386.748322</ele>
        <time>2012-04-29T15:27:03Z</time>
      </trkpt>
      <trkpt lat="47.60377" lon="6.12369">
        <ele>390.435608</ele>
        <time>2012-04-29T15:27:28Z</time>
      </trkpt>
      <trkpt lat="47.60421" lon="6.12487">
        <ele>382.264282</ele>
        <time>2012-04-29T15:27:42Z</time>
      </trkpt>
      <trkpt lat="47.60431" lon="6.12626">
        <ele>387.381317</ele>
        <time>2012-04-29T15:27:57Z</time>
      </trkpt>
      <trkpt lat="47.6035" lon="6.12709">
        <ele>375.144928</ele>
        <time>2012-04-29T15:28:23Z</time>
      </trkpt>
      <trkpt lat="47.60281" lon="6.12797">
        <ele>375.997772</ele>
        <time>2012-04-29T15:28:40Z</time>
      </trkpt>
      <trkpt lat="47.60186" lon="6.12821">
        <ele>371.213531</ele>
        <time>2012-04-29T15:29:04Z</time>
      </trkpt>
      <trkpt lat="47.60095" lon="6.12828">
        <ele>374.353546</ele>
        <time>2012-04-29T15:29:52Z</time>
      </trkpt>
      <trkpt lat="47.60003" lon="6.12809">
        <ele>374.869965</ele>
        <time>2012-04-29T15:30:31Z</time>
      </trkpt>
      <trkpt lat="47.59915" lon="6.12779">
        <ele>378.256744</ele>
        <time>2012-04-29T15:31:15Z</time>
      </trkpt>
      <trkpt lat="47.59821" lon="6.12798">
        <ele>384.88266</ele>
        <time>2012-04-29T15:31:38Z</time>
      </trkpt>
      <trkpt lat="47.59727" lon="6.12811">
        <ele>384.393616</ele>
        <time>2012-04-29T15:31:59Z</time>
      </trkpt>
      <trkpt lat="47.59636" lon="6.128">
        <ele>381.141266</ele>
        <time>2012-04-29T15:32:20Z</time>
      </trkpt>
      <trkpt lat="47.59545" lon="6.12794">
        <ele>375.926819</ele>
        <time>2012-04-29T15:32:42Z</time>
      </trkpt>
      <trkpt lat="47.59456" lon="6.1277">
        <ele>380.277435</ele>
        <time>2012-04-29T15:33:10Z</time>
      </trkpt>
      <trkpt lat="47.59368" lon="6.12807">
        <ele>378.509827</ele>
        <time>2012-04-29T15:33:31Z</time>
      </trkpt>
      <trkpt lat="47.59274" lon="6.12839">
        <ele>377.614136</ele>
        <time>2012-04-29T15:33:44Z</time>
      </trkpt>
      <trkpt lat="47.59178" lon="6.1284">
        <ele>365.202881</ele>
        <time>2012-04-29T15:33:55Z</time>
      </trkpt>
      <trkpt lat="47.59087" lon="6.12863">
        <ele>348.953247</ele>
        <time>2012-04-29T15:34:07Z</time>
      </trkpt>
      <trkpt lat="47.58994" lon="6.12854">
        <ele>349.254822</ele>
        <time>2012-04-29T15:34:26Z</time>
      </trkpt>
      <trkpt lat="47.58904" lon="6.12841">
        <ele>355.467957</ele>
        <time>2012-04-29T15:34:44Z</time>
      </trkpt>
      <trkpt lat="47.58812" lon="6.12863">
        <ele>350.399567</ele>
        <time>2012-04-29T15:34:58Z</time>
      </trkpt>
      <trkpt lat="47.58747" lon="6.12962">
        <ele>343.173553</ele>
        <time>2012-04-29T15:35:16Z</time>
      </trkpt>
      <trkpt lat="47.58735" lon="6.13099">
        <ele>338.307343</ele>
        <time>2012-04-29T15:35:32Z</time>
      </trkpt>
      <trkpt lat="47.58725" lon="6.13232">
        <ele>339.050842</ele>
        <time>2012-04-29T15:35:53Z</time>
      </trkpt>
      <trkpt lat="47.58724" lon="6.13367">
        <ele>327.793274</ele>
        <time>2012-04-29T15:36:14Z</time>
      </trkpt>
      <trkpt lat="47.58714" lon="6.13506">
        <ele>335.843994</ele>
        <time>2012-04-29T15:36:27Z</time>
      </trkpt>
      <trkpt lat="47.58743" lon="6.13639">
        <ele>325.521576</ele>
        <time>2012-04-29T15:36:37Z</time>
      </trkpt>
      <trkpt lat="47.58811" lon="6.13733">
        <ele>322.685425</ele>
        <time>2012-04-29T15:36:49Z</time>
      </trkpt>
      <trkpt lat="47.58885" lon="6.1381">
        <ele>324.618134</ele>
        <time>2012-04-29T15:37:07Z</time>
      </trkpt>
      <trkpt lat="47.58963" lon="6.13879">
        <ele>327.566956</ele>
        <time>2012-04-29T15:37:39Z</time>
      </trkpt>
      <trkpt lat="47.58949" lon="6.14014">
        <ele>329.484924</ele>
        <time>2012-04-29T15:38:08Z</time>
      </trkpt>
      <trkpt lat="47.58988" lon="6.14135">
        <ele>341.907837</ele>
        <time>2012-04-29T15:38:45Z</time>
      </trkpt>
      <trkpt lat="47.59013" lon="6.14263">
        <ele>353.145233</ele>
        <time>2012-04-29T15:39:20Z</time>
      </trkpt>
      <trkpt lat="47.59043" lon="6.1439">
        <ele>354.83725</ele>
        <time>2012-04-29T15:39:55Z</time>
      </trkpt>
      <trkpt lat="47.59126" lon="6.14441">
        <ele>362.839935</ele>
        <time>2012-04-29T15:40:34Z</time>
      </trkpt>
      <trkpt lat="47.59202" lon="6.14514">
        <ele>379.500946</ele>
        <time>2012-04-29T15:41:23Z</time>
      </trkpt>
      <trkpt lat="47.59234" lon="6.14641">
        <ele>385.299561</ele>
        <time>2012-04-29T15:42:13Z</time>
      </trkpt>
      <trkpt lat="47.59229" lon="6.14775">
        <ele>406.88916</ele>
        <time>2012-04-29T15:43:04Z</time>
      </trkpt>
      <trkpt lat="47.59228" lon="6.14908">
        <ele>409.929352</ele>
        <time>2012-04-29T15:43:43Z</time>
      </trkpt>
      <trkpt lat="47.5919" lon="6.15029">
        <ele>402.044189</ele>
        <time>2012-04-29T15:44:19Z</time>
      </trkpt>
      <trkpt lat="47.59112" lon="6.15097">
        <ele>415.167328</ele>
        <time>2012-04-29T15:44:44Z</time>
      </trkpt>
      <trkpt lat="47.59031" lon="6.15163">
        <ele>427.732727</ele>
        <time>2012-04-29T15:45:15Z</time>
      </trkpt>
      <trkpt lat="47.58955" lon="6.15235">
        <ele>429.92038</ele>
        <time>2012-04-29T15:45:54Z</time>
      </trkpt>
      <trkpt lat="47.58876" lon="6.15301">
        <ele>437.628693</ele>
        <time>2012-04-29T15:46:36Z</time>
      </trkpt>
      <trkpt lat="47.5892" lon="6.15421">
        <ele>451.492554</ele>
        <time>2012-04-29T15:47:21Z</time>
      </trkpt>
      <trkpt lat="47.58958" lon="6.15546">
        <ele>458.521942</ele>
        <time>2012-04-29T15:47:53Z</time>
      </trkpt>
      <trkpt lat="47.59026" lon="6.15635">
        <ele>450.251984</ele>
        <time>2012-04-29T15:48:29Z</time>
      </trkpt>
      <trkpt lat="47.59114" lon="6.15665">
        <ele>438.507935</ele>
        <time>2012-04-29T15:48:51Z</time>
      </trkpt>
      <trkpt lat="47.59205" lon="6.15692">
        <ele>442.841461</ele>
        <time>2012-04-29T15:49:17Z</time>
      </trkpt>
      <trkpt lat="47.59301" lon="6.15701">
        <ele>442.712036</ele>
        <time>2012-04-29T15:49:33Z</time>
      </trkpt>
      <trkpt lat="47.59397" lon="6.1572">
        <ele>432.339233</ele>
        <time>2012-04-29T15:49:43Z</time>
      </trkpt>
      <trkpt lat="47.59491" lon="6.15733">
        <ele>410.707947</ele>
        <time>2012-04-29T15:49:53Z</time>
      </trkpt>
      <trkpt lat="47.59577" lon="6.15781">
        <ele>400.3703</ele>
        <time>2012-04-29T15:50:10Z</time>
      </trkpt>
      <trkpt lat="47.59639" lon="6.15882">
        <ele>400.247406</ele>
        <time>2012-04-29T15:50:27Z</time>
      </trkpt>
      <trkpt lat="47.59706" lon="6.15976">
        <ele>396.302765</ele>
        <time>2012-04-29T15:50:44Z</time>
      </trkpt>
      <trkpt lat="47.59772" lon="6.16071">
        <ele>404.689331</ele>
        <time>2012-04-29T15:50:58Z</time>
      </trkpt>
      <trkpt lat="47.59838" lon="6.16182">
        <ele>391.712677</ele>
        <time>2012-04-29T15:51:09Z</time>
      </trkpt>
      <trkpt lat="47.59896" lon="6.16297">
        <ele>391.935455</ele>
        <time>2012-04-29T15:51:18Z</time>
      </trkpt>
      <trkpt lat="47.5993" lon="6.16433">
        <ele>384.922913</ele>
        <time>2012-04-29T15:51:26Z</time>
      </trkpt>
      <trkpt lat="47.59967" lon="6.16569">
        <ele>366.130371</ele>
        <time>2012-04-29T15:51:34Z</time>
      </trkpt>
      <trkpt lat="47.6001" lon="6.1669">
        <ele>358.920105</ele>
        <time>2012-04-29T15:51:48Z</time>
      </trkpt>
      <trkpt lat="47.60087" lon="6.16767">
        <ele>359.758728</ele>
        <time>2012-04-29T15:52:04Z</time>
      </trkpt>
      <trkpt lat="47.60171" lon="6.16826">
        <ele>354.372925</ele>
        <time>2012-04-29T15:52:27Z</time>
      </trkpt>
      <trkpt lat="47.60263" lon="6.16782">
        <ele>351.535736</ele>
        <time>2012-04-29T15:52:42Z</time>
      </trkpt>
      <trkpt lat="47.60263" lon="6.16916">
        <ele>362.421021</ele>
        <time>2012-04-29T15:53:54Z</time>
      </trkpt>
      <trkpt lat="47.60294" lon="6.17042">
        <ele>375.710236</ele>
        <time>2012-04-29T15:54:27Z</time>
      </trkpt>
      <trkpt lat="47.60337" lon="6.17162">
        <ele>370.032898</ele>
        <time>2012-04-29T15:54:56Z</time>
      </trkpt>
      <trkpt lat="47.60248" lon="6.17185">
        <ele>368.118317</ele>
        <time>2012-04-29T15:56:09Z</time>
      </trkpt>
      <trkpt lat="47.60159" lon="6.17224">
        <ele>370.780396</ele>
        <time>2012-04-29T15:56:39Z</time>
      </trkpt>
      <trkpt lat="47.60103" lon="6.17333">
        <ele>369.895142</ele>
        <time>2012-04-29T15:57:06Z</time>
      </trkpt>
      <trkpt lat="47.60122" lon="6.17464">
        <ele>365.387604</ele>
        <time>2012-04-29T15:57:33Z</time>
      </trkpt>
      <trkpt lat="47.60042" lon="6.17529">
        <ele>353.297852</ele>
        <time>2012-04-29T15:57:49Z</time>
      </trkpt>
      <trkpt lat="47.59965" lon="6.17604">
        <ele>350.258545</ele>
        <time>2012-04-29T15:58:29Z</time>
      </trkpt>
      <trkpt lat="47.6002" lon="6.17718">
        <ele>352.103699</ele>
        <time>2012-04-29T15:59:49Z</time>
      </trkpt>
      <trkpt lat="47.60083" lon="6.17819">
        <ele>340.682251</ele>
        <time>2012-04-29T16:00:08Z</time>
      </trkpt>
      <trkpt lat="47.60151" lon="6.17915">
        <ele>332.329559</ele>
        <time>2012-04-29T16:00:25Z</time>
      </trkpt>
      <trkpt lat="47.60233" lon="6.17972">
        <ele>317.653046</ele>
        <time>2012-04-29T16:01:36Z</time>
      </trkpt>
      <trkpt lat="47.60294" lon="6.18078">
        <ele>310.155853</ele>
        <time>2012-04-29T16:02:18Z</time>
      </trkpt>
      <trkpt lat="47.60339" lon="6.18202">
        <ele>309.429962</ele>
        <time>2012-04-29T16:02:31Z</time>
      </trkpt>
      <trkpt lat="47.60372" lon="6.18338">
        <ele>303.755432</ele>
        <time>2012-04-29T16:02:42Z</time>
      </trkpt>
      <trkpt lat="47.60377" lon="6.18479">
        <ele>297.324005</ele>
        <time>2012-04-29T16:02:54Z</time>
      </trkpt>
      <trkpt lat="47.60379" lon="6.18617">
        <ele>291.375092</ele>
        <time>2012-04-29T16:03:07Z</time>
      </trkpt>
      <trkpt lat="47.60451" lon="6.18698">
        <ele>285.539032</ele>
        <time>2012-04-29T16:03:24Z</time>
      </trkpt>
      <trkpt lat="47.60537" lon="6.18746">
        <ele>287.3237</ele>
        <time>2012-04-29T16:03:36Z</time>
      </trkpt>
      <trkpt lat="47.60631" lon="6.18795">
        <ele>285.279022</ele>
        <time>2012-04-29T16:03:46Z</time>
      </trkpt>
      <trkpt lat="47.60722" lon="6.18841">
        <ele>277.426636</ele>
        <time>2012-04-29T16:03:55Z</time>
      </trkpt>
      <trkpt lat="47.6081" lon="6.18778">
        <ele>269.169342</ele>
        <time>2012-04-29T16:04:06Z</time>
      </trkpt>
      <trkpt lat="47.60897" lon="6.18737">
        <ele>265.094818</ele>
        <time>2012-04-29T16:04:18Z</time>
      </trkpt>
      <trkpt lat="47.60991" lon="6.18751">
        <ele>269.492218</ele>
        <time>2012-04-29T16:04:34Z</time>
      </trkpt>
      <trkpt lat="47.61085" lon="6.18722">
        <ele>264.645294</ele>
        <time>2012-04-29T16:04:51Z</time>
      </trkpt>
      <trkpt lat="47.61154" lon="6.18624">
        <ele>261.477844</ele>
        <time>2012-04-29T16:05:04Z</time>
      </trkpt>
      <trkpt lat="47.61214" lon="6.18519">
        <ele>255.166016</ele>
        <time>2012-04-29T16:05:16Z</time>
      </trkpt>
      <trkpt lat="47.61311" lon="6.18482">
        <ele>256.640228</ele>
        <time>2012-04-29T16:05:26Z</time>
      </trkpt>
      <trkpt lat="47.61403" lon="6.18489">
        <ele>252.243866</ele>
        <time>2012-04-29T16:05:36Z</time>
      </trkpt>
      <trkpt lat="47.61448" lon="6.1837">
        <ele>246.412231</ele>
        <time>2012-04-29T16:06:11Z</time>
      </trkpt>
      <trkpt lat="47.61472" lon="6.18232">
        <ele>241.251495</ele>
        <time>2012-04-29T16:06:24Z</time>
      </trkpt>
      <trkpt lat="47.61496" lon="6.181">
        <ele>238.52771</ele>
        <time>2012-04-29T16:06:36Z</time>
      </trkpt>
      <trkpt lat="47.6152" lon="6.17965">
        <ele>235.605682</ele>
        <time>2012-04-29T16:06:49Z</time>
      </trkpt>
      <trkpt lat="47.6154" lon="6.17825">
        <ele>235.996429</ele>
        <time>2012-04-29T16:07:02Z</time>
      </trkpt>
      <trkpt lat="47.61564" lon="6.17688">
        <ele>239.862061</ele>
        <time>2012-04-29T16:07:14Z</time>
      </trkpt>
      <trkpt lat="47.61584" lon="6.17553">
        <ele>238.816528</ele>
        <time>2012-04-29T16:07:26Z</time>
      </trkpt>
      <trkpt lat="47.61588" lon="6.17413">
        <ele>238.06662</ele>
        <time>2012-04-29T16:07:39Z</time>
      </trkpt>
      <trkpt lat="47.61577" lon="6.17274">
        <ele>237.076813</ele>
        <time>2012-04-29T16:07:53Z</time>
      </trkpt>
      <trkpt lat="47.61554" lon="6.17139">
        <ele>232.6026</ele>
        <time>2012-04-29T16:08:08Z</time>
      </trkpt>
      <trkpt lat="47.6153" lon="6.17006">
        <ele>231.234802</ele>
        <time>2012-04-29T16:08:23Z</time>
      </trkpt>
      <trkpt lat="47.6151" lon="6.16869">
        <ele>227.866211</ele>
        <time>2012-04-29T16:08:39Z</time>
      </trkpt>
      <trkpt lat="47.61509" lon="6.16733">
        <ele>225.321045</ele>
        <time>2012-04-29T16:08:59Z</time>
      </trkpt>
      <trkpt lat="47.61478" lon="6.16601">
        <ele>225.272522</ele>
        <time>2012-04-29T16:09:16Z</time>
      </trkpt>
      <trkpt lat="47.6145" lon="6.16471">
        <ele>225.316925</ele>
        <time>2012-04-29T16:09:33Z</time>
      </trkpt>
      <trkpt lat="47.61416" lon="6.16342">
        <ele>225.395905</ele>
        <time>2012-04-29T16:09:51Z</time>
      </trkpt>
      <trkpt lat="47.61382" lon="6.16214">
        <ele>227.758759</ele>
        <time>2012-04-29T16:10:09Z</time>
      </trkpt>
      <trkpt lat="47.61373" lon="6.16076">
        <ele>224.438599</ele>
        <time>2012-04-29T16:10:23Z</time>
      </trkpt>
      <trkpt lat="47.61368" lon="6.15942">
        <ele>224.101166</ele>
        <time>2012-04-29T16:10:37Z</time>
      </trkpt>
      <trkpt lat="47.61364" lon="6.15808">
        <ele>223.967651</ele>
        <time>2012-04-29T16:10:51Z</time>
      </trkpt>
      <trkpt lat="47.61346" lon="6.15677">
        <ele>220.989044</ele>
        <time>2012-04-29T16:11:05Z</time>
      </trkpt>
      <trkpt lat="47.61322" lon="6.15547">
        <ele>222.820618</ele>
        <time>2012-04-29T16:11:21Z</time>
      </trkpt>
      <trkpt lat="47.61291" lon="6.1542">
        <ele>225.654297</ele>
        <time>2012-04-29T16:11:40Z</time>
      </trkpt>
      <trkpt lat="47.61283" lon="6.15281">
        <ele>226.089264</ele>
        <time>2012-04-29T16:11:59Z</time>
      </trkpt>
      <trkpt lat="47.61299" lon="6.15143">
        <ele>225.95993</ele>
        <time>2012-04-29T16:12:15Z</time>
      </trkpt>
      <trkpt lat="47.61336" lon="6.15021">
        <ele>229.152252</ele>
        <time>2012-04-29T16:12:30Z</time>
      </trkpt>
      <trkpt lat="47.61376" lon="6.14898">
        <ele>233.335754</ele>
        <time>2012-04-29T16:12:45Z</time>
      </trkpt>
      <trkpt lat="47.61413" lon="6.14772">
        <ele>222.348206</ele>
        <time>2012-04-29T16:12:59Z</time>
      </trkpt>
      <trkpt lat="47.61441" lon="6.14645">
        <ele>224.010773</ele>
        <time>2012-04-29T16:13:13Z</time>
      </trkpt>
      <trkpt lat="47.61469" lon="6.14516">
        <ele>226.891479</ele>
        <time>2012-04-29T16:13:27Z</time>
      </trkpt>
      <trkpt lat="47.61515" lon="6.14393">
        <ele>218.578857</ele>
        <time>2012-04-29T16:13:41Z</time>
      </trkpt>
      <trkpt lat="47.6155" lon="6.14269">
        <ele>218.680817</ele>
        <time>2012-04-29T16:13:54Z</time>
      </trkpt>
      <trkpt lat="47.61574" lon="6.14132">
        <ele>222.870605</ele>
        <time>2012-04-29T16:14:09Z</time>
      </trkpt>
      <trkpt lat="47.61599" lon="6.13997">
        <ele>220.997864</ele>
        <time>2012-04-29T16:14:24Z</time>
      </trkpt>
      <trkpt lat="47.61627" lon="6.13866">
        <ele>218.498688</ele>
        <time>2012-04-29T16:14:39Z</time>
      </trkpt>
      <trkpt lat="47.61656" lon="6.13732">
        <ele>221.774811</ele>
        <time>2012-04-29T16:14:54Z</time>
      </trkpt>
      <trkpt lat="47.61684" lon="6.13599">
        <ele>223.26889</ele>
        <time>2012-04-29T16:15:09Z</time>
      </trkpt>
      <trkpt lat="47.61709" lon="6.13471">
        <ele>219.941406</ele>
        <time>2012-04-29T16:15:24Z</time>
      </trkpt>
      <trkpt lat="47.61738" lon="6.13342">
        <ele>224.097656</ele>
        <time>2012-04-29T16:15:40Z</time>
      </trkpt>
      <trkpt lat="47.61768" lon="6.13209">
        <ele>221.058777</ele>
        <time>2012-04-29T16:15:55Z</time>
      </trkpt>
      <trkpt lat="47.61796" lon="6.13079">
        <ele>220.605011</ele>
        <time>2012-04-29T16:16:10Z</time>
      </trkpt>
      <trkpt lat="47.61824" lon="6.12948">
        <ele>222.02478</ele>
        <time>2012-04-29T16:16:26Z</time>
      </trkpt>
      <trkpt lat="47.61852" lon="6.12818">
        <ele>222.404907</ele>
        <time>2012-04-29T16:16:41Z</time>
      </trkpt>
      <trkpt lat="47.61886" lon="6.12692">
        <ele>221.738617</ele>
        <time>2012-04-29T16:16:58Z</time>
      </trkpt>
      <trkpt lat="47.61933" lon="6.12572">
        <ele>214.6716</ele>
        <time>2012-04-29T16:17:15Z</time>
      </trkpt>
      <trkpt lat="47.61993" lon="6.12463">
        <ele>220.253143</ele>
        <time>2012-04-29T16:17:32Z</time>
      </trkpt>
      <trkpt lat="47.62051" lon="6.12359">
        <ele>221.816345</ele>
        <time>2012-04-29T16:17:48Z</time>
      </trkpt>
      <trkpt lat="47.6211" lon="6.12254">
        <ele>222.170258</ele>
        <time>2012-04-29T16:18:03Z</time>
      </trkpt>
      <trkpt lat="47.62168" lon="6.12146">
        <ele>223.523041</ele>
        <time>2012-04-29T16:18:17Z</time>
      </trkpt>
      <trkpt lat="47.62221" lon="6.12028">
        <ele>223.397766</ele>
        <time>2012-04-29T16:18:31Z</time>
      </trkpt>
      <trkpt lat="47.62271" lon="6.11907">
        <ele>223.119324</ele>
        <time>2012-04-29T16:18:45Z</time>
      </trkpt>
      <trkpt lat="47.6232" lon="6.11791">
        <ele>225.533386</ele>
        <time>2012-04-29T16:19:00Z</time>
      </trkpt>
      <trkpt lat="47.62368" lon="6.1167">
        <ele>228.46225</ele>
        <time>2012-04-29T16:19:15Z</time>
      </trkpt>
      <trkpt lat="47.6242" lon="6.11552">
        <ele>226.648651</ele>
        <time>2012-04-29T16:19:29Z</time>
      </trkpt>
      <trkpt lat="47.62459" lon="6.11425">
        <ele>222.999512</ele>
        <time>2012-04-29T16:19:42Z</time>
      </trkpt>
      <trkpt lat="47.62504" lon="6.11297">
        <ele>221.977692</ele>
        <time>2012-04-29T16:19:55Z</time>
      </trkpt>
      <trkpt lat="47.62554" lon="6.11179">
        <ele>221.239807</ele>
        <time>2012-04-29T16:20:07Z</time>
      </trkpt>
      <trkpt lat="47.62607" lon="6.11069">
        <ele>221.243042</ele>
        <time>2012-04-29T16:20:19Z</time>
      </trkpt>
      <trkpt lat="47.6267" lon="6.10973">
        <ele>223.330963</ele>
        <time>2012-04-29T16:20:32Z</time>
      </trkpt>
      <trkpt lat="47.62725" lon="6.10865">
        <ele>225.032745</ele>
        <time>2012-04-29T16:20:45Z</time>
      </trkpt>
      <trkpt lat="47.62792" lon="6.10776">
        <ele>228.368958</ele>
        <time>2012-04-29T16:21:00Z</time>
      </trkpt>
      <trkpt lat="47.62869" lon="6.10702">
        <ele>229.836426</ele>
        <time>2012-04-29T16:21:15Z</time>
      </trkpt>
      <trkpt lat="47.62945" lon="6.10627">
        <ele>221.413757</ele>
        <time>2012-04-29T16:21:27Z</time>
      </trkpt>
      <trkpt lat="47.63008" lon="6.10524">
        <ele>222.66745</ele>
        <time>2012-04-29T16:21:41Z</time>
      </trkpt>
      <trkpt lat="47.63063" lon="6.10414">
        <ele>222.221985</ele>
        <time>2012-04-29T16:21:56Z</time>
      </trkpt>
      <trkpt lat="47.63127" lon="6.10318">
        <ele>221.940369</ele>
        <time>2012-04-29T16:22:10Z</time>
      </trkpt>
      <trkpt lat="47.63198" lon="6.10222">
        <ele>220.717163</ele>
        <time>2012-04-29T16:22:23Z</time>
      </trkpt>
    </trkseg>
  </trk>
</gpx>